sensor_id;sensor_type;location;lat;lon;timestamp;pressure;altitude;pressure_sealevel;temperature;humidity
16821;BME280;8527;49.740;6.604;2022-10-16T00:02:06;99446.50;;;14.02;100.00
16821;BME280;8527;49.740;6.604;2022-10-16T00:07:05;99431.16;;;14.04;100.00
16821;BME280;8527;49.740;6.604;2022-10-16T00:12:03;99445.50;;;14.03;100.00
16821;BME280;8527;49.740;6.604;2022-10-16T00:17:07;99447.34;;;14.02;100.00
16821;BME280;8527;49.740;6.604;2022-10-16T00:22:05;99447.78;;;14.06;100.00
16821;BME280;8527;49.740;6.604;2022-10-16T00:27:03;99451.25;;;14.06;100.00
16821;BME280;8527;49.740;6.604;2022-10-16T00:32:02;99443.25;;;14.06;100.00
16821;BME280;8527;49.740;6.604;2022-10-16T00:37:03;99449.44;;;14.07;100.00
16821;BME280;8527;49.740;6.604;2022-10-16T00:42:02;99451.88;;;14.09;100.00
16821;BME280;8527;49.740;6.604;2022-10-16T00:47:00;99460.09;;;14.07;100.00
16821;BME280;8527;49.740;6.604;2022-10-16T00:52:07;99462.13;;;14.05;100.00
16821;BME280;8527;49.740;6.604;2022-10-16T00:57:14;99463.97;;;14.04;100.00
16821;BME280;8527;49.740;6.604;2022-10-16T01:02:14;99470.16;;;14.12;100.00
16821;BME280;8527;49.740;6.604;2022-10-16T01:07:22;99469.56;;;14.16;100.00
16821;BME280;8527;49.740;6.604;2022-10-16T01:12:39;99476.75;;;14.16;100.00
16821;BME280;8527;49.740;6.604;2022-10-16T01:17:43;99476.75;;;14.16;100.00
16821;BME280;8527;49.740;6.604;2022-10-16T01:23:01;99491.28;;;14.13;100.00
16821;BME280;8527;49.740;6.604;2022-10-16T01:28:06;99490.50;;;14.13;100.00
16821;BME280;8527;49.740;6.604;2022-10-16T01:33:17;99496.25;;;14.16;100.00
16821;BME280;8527;49.740;6.604;2022-10-16T01:38:19;99489.91;;;14.17;100.00
16821;BME280;8527;49.740;6.604;2022-10-16T01:43:26;99488.88;;;14.18;100.00
16821;BME280;8527;49.740;6.604;2022-10-16T01:48:28;99484.56;;;14.17;100.00
16821;BME280;8527;49.740;6.604;2022-10-16T01:53:39;99484.56;;;14.17;100.00
16821;BME280;8527;49.740;6.604;2022-10-16T01:58:47;99499.53;;;14.18;100.00
16821;BME280;8527;49.740;6.604;2022-10-16T02:03:50;99480.47;;;14.21;100.00
16821;BME280;8527;49.740;6.604;2022-10-16T02:08:49;99484.34;;;14.19;100.00
16821;BME280;8527;49.740;6.604;2022-10-16T02:14:00;99498.94;;;14.16;100.00
16821;BME280;8527;49.740;6.604;2022-10-16T02:19:12;99506.53;;;14.19;100.00
16821;BME280;8527;49.740;6.604;2022-10-16T02:24:20;99484.97;;;14.21;100.00
16821;BME280;8527;49.740;6.604;2022-10-16T02:29:33;99492.34;;;14.19;100.00
16821;BME280;8527;49.740;6.604;2022-10-16T02:34:34;99489.69;;;14.19;100.00
16821;BME280;8527;49.740;6.604;2022-10-16T02:39:43;99473.28;;;14.22;100.00
16821;BME280;8527;49.740;6.604;2022-10-16T02:44:47;99492.75;;;14.16;100.00
16821;BME280;8527;49.740;6.604;2022-10-16T02:49:45;99493.38;;;14.18;100.00
16821;BME280;8527;49.740;6.604;2022-10-16T02:54:53;99491.28;;;14.13;100.00
16821;BME280;8527;49.740;6.604;2022-10-16T02:59:54;99503.63;;;14.14;100.00
16821;BME280;8527;49.740;6.604;2022-10-16T03:05:04;99489.91;;;14.17;100.00
16821;BME280;8527;49.740;6.604;2022-10-16T03:10:04;99489.91;;;14.17;100.00
16821;BME280;8527;49.740;6.604;2022-10-16T03:15:06;99497.69;;;14.19;100.00
16821;BME280;8527;49.740;6.604;2022-10-16T03:20:05;99499.13;;;14.21;100.00
16821;BME280;8527;49.740;6.604;2022-10-16T03:25:05;99498.97;;;14.23;100.00
16821;BME280;8527;49.740;6.604;2022-10-16T03:30:08;99499.53;;;14.18;100.00
16821;BME280;8527;49.740;6.604;2022-10-16T03:35:13;99499.53;;;14.18;100.00
16821;BME280;8527;49.740;6.604;2022-10-16T03:40:11;99508.75;;;14.16;100.00
16821;BME280;8527;49.740;6.604;2022-10-16T03:45:13;99512.25;;;14.16;100.00
16821;BME280;8527;49.740;6.604;2022-10-16T03:50:12;99511.00;;;14.12;100.00
16821;BME280;8527;49.740;6.604;2022-10-16T03:55:13;99515.94;;;14.15;100.00
16821;BME280;8527;49.740;6.604;2022-10-16T04:00:15;99513.91;;;14.17;100.00
16821;BME280;8527;49.740;6.604;2022-10-16T04:05:13;99522.72;;;14.18;100.00
16821;BME280;8527;49.740;6.604;2022-10-16T04:10:12;99517.59;;;14.16;100.00
16821;BME280;8527;49.740;6.604;2022-10-16T04:15:17;99513.50;;;14.20;100.00
16821;BME280;8527;49.740;6.604;2022-10-16T04:20:18;99533.00;;;14.21;100.00
16821;BME280;8527;49.740;6.604;2022-10-16T04:25:16;99525.19;;;14.19;100.00
16821;BME280;8527;49.740;6.604;2022-10-16T04:30:17;99527.88;;;14.19;100.00
16821;BME280;8527;49.740;6.604;2022-10-16T04:35:22;99537.53;;;14.20;100.00
16821;BME280;8527;49.740;6.604;2022-10-16T04:40:21;99547.16;;;14.21;100.00
16821;BME280;8527;49.740;6.604;2022-10-16T04:45:22;99550.69;;;14.22;100.00
16821;BME280;8527;49.740;6.604;2022-10-16T04:50:20;99547.78;;;14.24;100.00
16821;BME280;8527;49.740;6.604;2022-10-16T04:55:18;99572.81;;;14.23;100.00
16821;BME280;8527;49.740;6.604;2022-10-16T05:00:17;99562.16;;;14.23;100.00
16821;BME280;8527;49.740;6.604;2022-10-16T05:05:18;99550.25;;;14.18;100.00
16821;BME280;8527;49.740;6.604;2022-10-16T05:10:19;99553.53;;;14.20;100.00
16821;BME280;8527;49.740;6.604;2022-10-16T05:15:17;99562.34;;;14.21;100.00
16821;BME280;8527;49.740;6.604;2022-10-16T05:20:26;99575.69;;;14.21;100.00
16821;BME280;8527;49.740;6.604;2022-10-16T05:25:31;99585.94;;;14.17;100.00
16821;BME280;8527;49.740;6.604;2022-10-16T05:30:37;99588.03;;;14.22;100.00
16821;BME280;8527;49.740;6.604;2022-10-16T05:35:39;99576.53;;;14.21;100.00
16821;BME280;8527;49.740;6.604;2022-10-16T05:40:41;99585.16;;;14.24;100.00
16821;BME280;8527;49.740;6.604;2022-10-16T05:45:40;99589.69;;;14.23;100.00
16821;BME280;8527;49.740;6.604;2022-10-16T05:50:41;99582.47;;;14.24;100.00
16821;BME280;8527;49.740;6.604;2022-10-16T05:55:42;99583.31;;;14.24;100.00
16821;BME280;8527;49.740;6.604;2022-10-16T06:00:44;99593.16;;;14.24;100.00
16821;BME280;8527;49.740;6.604;2022-10-16T06:05:44;99604.84;;;14.23;100.00
16821;BME280;8527;49.740;6.604;2022-10-16T06:11:00;99608.53;;;14.21;100.00
16821;BME280;8527;49.740;6.604;2022-10-16T06:16:01;99608.94;;;14.18;100.00
16821;BME280;8527;49.740;6.604;2022-10-16T06:21:12;99605.69;;;14.23;100.00
16821;BME280;8527;49.740;6.604;2022-10-16T06:26:14;99603.41;;;14.27;100.00
16821;BME280;8527;49.740;6.604;2022-10-16T06:31:13;99622.75;;;14.29;100.00
16821;BME280;8527;49.740;6.604;2022-10-16T06:36:15;99634.41;;;14.28;100.00
16821;BME280;8527;49.740;6.604;2022-10-16T06:41:20;99639.75;;;14.28;100.00
16821;BME280;8527;49.740;6.604;2022-10-16T06:46:21;99651.91;;;14.30;100.00
16821;BME280;8527;49.740;6.604;2022-10-16T06:51:24;99649.47;;;14.35;100.00
16821;BME280;8527;49.740;6.604;2022-10-16T06:56:24;99657.28;;;14.37;100.00
16821;BME280;8527;49.740;6.604;2022-10-16T07:01:27;99663.44;;;14.38;100.00
16821;BME280;8527;49.740;6.604;2022-10-16T07:06:32;99675.56;;;14.40;100.00
16821;BME280;8527;49.740;6.604;2022-10-16T07:11:31;99681.34;;;14.44;100.00
16821;BME280;8527;49.740;6.604;2022-10-16T07:16:40;99695.97;;;14.48;100.00
16821;BME280;8527;49.740;6.604;2022-10-16T07:21:43;99710.56;;;14.52;100.00
16821;BME280;8527;49.740;6.604;2022-10-16T07:26:43;99722.28;;;14.58;100.00
16821;BME280;8527;49.740;6.604;2022-10-16T07:31:42;99732.00;;;14.66;100.00
16821;BME280;8527;49.740;6.604;2022-10-16T07:36:43;99733.31;;;14.76;100.00
16821;BME280;8527;49.740;6.604;2022-10-16T07:41:41;99744.25;;;14.82;100.00
16821;BME280;8527;49.740;6.604;2022-10-16T07:46:40;99751.28;;;14.89;100.00
16821;BME280;8527;49.740;6.604;2022-10-16T07:51:38;99749.03;;;14.93;100.00
16821;BME280;8527;49.740;6.604;2022-10-16T07:56:40;99771.19;;;14.87;100.00
16821;BME280;8527;49.740;6.604;2022-10-16T08:01:38;99773.84;;;14.87;100.00
16821;BME280;8527;49.740;6.604;2022-10-16T08:06:38;99776.53;;;14.87;100.00
16821;BME280;8527;49.740;6.604;2022-10-16T08:11:39;99784.13;;;14.90;100.00
16821;BME280;8527;49.740;6.604;2022-10-16T08:16:38;99786.69;;;15.05;100.00
16821;BME280;8527;49.740;6.604;2022-10-16T08:21:36;99797.19;;;15.07;100.00
16821;BME280;8527;49.740;6.604;2022-10-16T08:26:40;99796.75;;;15.03;100.00
16821;BME280;8527;49.740;6.604;2022-10-16T08:31:39;99808.66;;;15.00;100.00
16821;BME280;8527;49.740;6.604;2022-10-16T08:36:37;99809.50;;;15.01;100.00
16821;BME280;8527;49.740;6.604;2022-10-16T08:42:04;99815.91;;;15.07;100.00
16821;BME280;8527;49.740;6.604;2022-10-16T08:47:17;99824.19;;;15.18;100.00
16821;BME280;8527;49.740;6.604;2022-10-16T08:52:16;99835.16;;;15.30;100.00
16821;BME280;8527;49.740;6.604;2022-10-16T08:57:19;99839.69;;;15.37;100.00
16821;BME280;8527;49.740;6.604;2022-10-16T09:02:28;99836.03;;;15.44;100.00
16821;BME280;8527;49.740;6.604;2022-10-16T09:07:33;99836.09;;;15.58;100.00
16821;BME280;8527;49.740;6.604;2022-10-16T09:12:39;99826.22;;;15.58;100.00
16821;BME280;8527;49.740;6.604;2022-10-16T09:17:46;99830.41;;;15.74;100.00
16821;BME280;8527;49.740;6.604;2022-10-16T09:22:50;99856.47;;;15.66;100.00
16821;BME280;8527;49.740;6.604;2022-10-16T09:28:00;99863.28;;;15.68;100.00
16821;BME280;8527;49.740;6.604;2022-10-16T09:32:59;99860.31;;;15.92;100.00
16821;BME280;8527;49.740;6.604;2022-10-16T09:38:00;99860.97;;;15.94;100.00
16821;BME280;8527;49.740;6.604;2022-10-16T09:43:15;99853.19;;;16.19;100.00
16821;BME280;8527;49.740;6.604;2022-10-16T09:48:19;99841.88;;;16.37;100.00
16821;BME280;8527;49.740;6.604;2022-10-16T09:53:17;99824.97;;;16.37;100.00
16821;BME280;8527;49.740;6.604;2022-10-16T09:58:21;99827.47;;;16.58;100.00
16821;BME280;8527;49.740;6.604;2022-10-16T10:03:33;99831.75;;;17.20;100.00
16821;BME280;8527;49.740;6.604;2022-10-16T10:08:32;99819.09;;;17.41;100.00
16821;BME280;8527;49.740;6.604;2022-10-16T10:13:33;99837.63;;;17.56;100.00
16821;BME280;8527;49.740;6.604;2022-10-16T10:18:34;99842.38;;;17.54;100.00
16821;BME280;8527;49.740;6.604;2022-10-16T10:23:35;99831.13;;;17.77;100.00
16821;BME280;8527;49.740;6.604;2022-10-16T10:28:52;99839.22;;;17.70;100.00
16821;BME280;8527;49.740;6.604;2022-10-16T10:33:55;99840.00;;;17.78;100.00
16821;BME280;8527;49.740;6.604;2022-10-16T10:39:02;99857.31;;;17.82;100.00
16821;BME280;8527;49.740;6.604;2022-10-16T10:44:11;99845.22;;;17.59;100.00
16821;BME280;8527;49.740;6.604;2022-10-16T10:49:29;99850.94;;;17.76;100.00
16821;BME280;8527;49.740;6.604;2022-10-16T10:54:36;99841.59;;;17.92;100.00
16821;BME280;8527;49.740;6.604;2022-10-16T10:59:49;99856.72;;;17.80;100.00
16821;BME280;8527;49.740;6.604;2022-10-16T11:05:06;99841.75;;;17.97;100.00
16821;BME280;8527;49.740;6.604;2022-10-16T11:10:14;99862.25;;;17.85;100.00
16821;BME280;8527;49.740;6.604;2022-10-16T11:15:27;99862.97;;;17.60;100.00
16821;BME280;8527;49.740;6.604;2022-10-16T11:20:28;99860.88;;;17.69;100.00
16821;BME280;8527;49.740;6.604;2022-10-16T11:25:33;99860.59;;;17.84;100.00
16821;BME280;8527;49.740;6.604;2022-10-16T11:30:42;99864.38;;;17.76;100.00
16821;BME280;8527;49.740;6.604;2022-10-16T11:35:46;99860.19;;;17.87;100.00
16821;BME280;8527;49.740;6.604;2022-10-16T11:40:48;99850.03;;;18.03;100.00
16821;BME280;8527;49.740;6.604;2022-10-16T11:45:53;99844.97;;;18.13;100.00
16821;BME280;8527;49.740;6.604;2022-10-16T11:50:53;99844.25;;;18.31;100.00
16821;BME280;8527;49.740;6.604;2022-10-16T11:55:52;99846.47;;;18.41;100.00
16821;BME280;8527;49.740;6.604;2022-10-16T12:01:12;99853.38;;;18.55;100.00
16821;BME280;8527;49.740;6.604;2022-10-16T12:06:25;99851.81;;;18.48;100.00
16821;BME280;8527;49.740;6.604;2022-10-16T12:11:33;99840.50;;;18.64;100.00
16821;BME280;8527;49.740;6.604;2022-10-16T12:16:50;99843.78;;;18.41;100.00
16821;BME280;8527;49.740;6.604;2022-10-16T12:21:52;99847.97;;;18.30;100.00
16821;BME280;8527;49.740;6.604;2022-10-16T12:26:52;99850.78;;;18.10;100.00
16821;BME280;8527;49.740;6.604;2022-10-16T12:31:53;99845.88;;;18.00;100.00
16821;BME280;8527;49.740;6.604;2022-10-16T12:36:53;99840.66;;;18.12;100.00
16821;BME280;8527;49.740;6.604;2022-10-16T12:42:02;99836.13;;;18.12;100.00
16821;BME280;8527;49.740;6.604;2022-10-16T12:47:19;99838.22;;;18.10;100.00
16821;BME280;8527;49.740;6.604;2022-10-16T12:52:28;99838.16;;;18.17;100.00
16821;BME280;8527;49.740;6.604;2022-10-16T12:57:43;99835.94;;;18.07;100.00
16821;BME280;8527;49.740;6.604;2022-10-16T13:08:42;99830.16;;;18.36;100.00
16821;BME280;8527;49.740;6.604;2022-10-16T13:13:58;99840.75;;;18.56;100.00
16821;BME280;8527;49.740;6.604;2022-10-16T13:19:13;99840.81;;;18.75;100.00
16821;BME280;8527;49.740;6.604;2022-10-16T13:24:25;99832.53;;;18.76;100.00
16821;BME280;8527;49.740;6.604;2022-10-16T13:29:34;99837.03;;;18.57;100.00
16821;BME280;8527;49.740;6.604;2022-10-16T13:34:32;99830.91;;;18.50;100.00
16821;BME280;8527;49.740;6.604;2022-10-16T13:39:33;99824.34;;;18.46;98.72
16821;BME280;8527;49.740;6.604;2022-10-16T13:44:36;99836.16;;;18.63;100.00
16821;BME280;8527;49.740;6.604;2022-10-16T13:49:37;99830.06;;;18.75;100.00
16821;BME280;8527;49.740;6.604;2022-10-16T13:54:38;99843.13;;;18.71;100.00
16821;BME280;8527;49.740;6.604;2022-10-16T13:59:37;99835.00;;;18.78;100.00
16821;BME280;8527;49.740;6.604;2022-10-16T14:04:38;99830.59;;;18.65;100.00
16821;BME280;8527;49.740;6.604;2022-10-16T14:09:40;99831.78;;;18.69;100.00
16821;BME280;8527;49.740;6.604;2022-10-16T14:14:42;99828.75;;;18.59;100.00
16821;BME280;8527;49.740;6.604;2022-10-16T14:19:49;99821.81;;;18.51;100.00
16821;BME280;8527;49.740;6.604;2022-10-16T14:24:51;99820.41;;;18.41;100.00
16821;BME280;8527;49.740;6.604;2022-10-16T14:30:08;99817.72;;;18.41;100.00
16821;BME280;8527;49.740;6.604;2022-10-16T14:35:23;99804.63;;;18.52;100.00
16821;BME280;8527;49.740;6.604;2022-10-16T14:40:27;99820.38;;;18.48;100.00
16821;BME280;8527;49.740;6.604;2022-10-16T14:45:35;99815.50;;;18.38;100.00
16821;BME280;8527;49.740;6.604;2022-10-16T14:50:36;99808.63;;;18.42;100.00
16821;BME280;8527;49.740;6.604;2022-10-16T14:55:39;99812.97;;;18.44;100.00
16821;BME280;8527;49.740;6.604;2022-10-16T15:00:41;99813.91;;;18.31;100.00
16821;BME280;8527;49.740;6.604;2022-10-16T15:05:40;99830.41;;;18.34;100.00
16821;BME280;8527;49.740;6.604;2022-10-16T15:10:43;99827.94;;;18.33;100.00
16821;BME280;8527;49.740;6.604;2022-10-16T15:15:46;99818.22;;;18.32;100.00
16821;BME280;8527;49.740;6.604;2022-10-16T15:20:45;99818.53;;;18.17;100.00
16821;BME280;8527;49.740;6.604;2022-10-16T15:25:47;99806.41;;;18.00;100.00
16821;BME280;8527;49.740;6.604;2022-10-16T15:30:53;99813.59;;;18.13;100.00
16821;BME280;8527;49.740;6.604;2022-10-16T15:35:54;99810.09;;;18.13;100.00
16821;BME280;8527;49.740;6.604;2022-10-16T15:40:58;99809.28;;;18.12;100.00
16821;BME280;8527;49.740;6.604;2022-10-16T15:46:02;99812.59;;;18.08;100.00
16821;BME280;8527;49.740;6.604;2022-10-16T15:51:05;99810.13;;;17.99;100.00
16821;BME280;8527;49.740;6.604;2022-10-16T15:56:07;99802.16;;;17.86;100.00
16821;BME280;8527;49.740;6.604;2022-10-16T16:01:06;99812.94;;;17.79;100.00
16821;BME280;8527;49.740;6.604;2022-10-16T16:06:09;99815.69;;;17.66;100.00
16821;BME280;8527;49.740;6.604;2022-10-16T16:11:16;99820.06;;;17.60;100.00
16821;BME280;8527;49.740;6.604;2022-10-16T16:16:18;99824.84;;;17.51;100.00
16821;BME280;8527;49.740;6.604;2022-10-16T16:21:16;99829.41;;;17.44;100.00
16821;BME280;8527;49.740;6.604;2022-10-16T16:26:25;99823.47;;;17.28;100.00
16821;BME280;8527;49.740;6.604;2022-10-16T16:31:31;99828.06;;;17.14;100.00
16821;BME280;8527;49.740;6.604;2022-10-16T16:36:33;99829.31;;;17.05;100.00
16821;BME280;8527;49.740;6.604;2022-10-16T16:41:34;99828.47;;;16.91;100.00
16821;BME280;8527;49.740;6.604;2022-10-16T16:46:33;99836.94;;;16.81;100.00
16821;BME280;8527;49.740;6.604;2022-10-16T16:51:33;99837.38;;;16.65;100.00
16821;BME280;8527;49.740;6.604;2022-10-16T16:56:34;99840.25;;;16.56;100.00
16821;BME280;8527;49.740;6.604;2022-10-16T17:01:33;99843.94;;;16.42;100.00
16821;BME280;8527;49.740;6.604;2022-10-16T17:06:31;99853.00;;;16.34;100.00
16821;BME280;8527;49.740;6.604;2022-10-16T17:11:38;99854.44;;;16.30;100.00
16821;BME280;8527;49.740;6.604;2022-10-16T17:16:40;99861.22;;;16.19;100.00
16821;BME280;8527;49.740;6.604;2022-10-16T17:21:41;99865.94;;;16.10;100.00
16821;BME280;8527;49.740;6.604;2022-10-16T17:26:43;99865.31;;;16.01;100.00
16821;BME280;8527;49.740;6.604;2022-10-16T17:31:44;99872.00;;;15.84;100.00
16821;BME280;8527;49.740;6.604;2022-10-16T17:36:47;99874.47;;;15.85;100.00
16821;BME280;8527;49.740;6.604;2022-10-16T17:41:48;99880.84;;;15.78;100.00
16821;BME280;8527;49.740;6.604;2022-10-16T17:46:47;99886.19;;;15.78;100.00
16821;BME280;8527;49.740;6.604;2022-10-16T17:51:49;99894.78;;;15.66;100.00
16821;BME280;8527;49.740;6.604;2022-10-16T17:56:50;99895.78;;;15.65;100.00
16821;BME280;8527;49.740;6.604;2022-10-16T18:01:51;99890.41;;;15.58;100.00
16821;BME280;8527;49.740;6.604;2022-10-16T18:06:49;99893.06;;;15.52;100.00
16821;BME280;8527;49.740;6.604;2022-10-16T18:11:53;99897.13;;;15.47;100.00
16821;BME280;8527;49.740;6.604;2022-10-16T18:16:54;99909.50;;;15.49;100.00
16821;BME280;8527;49.740;6.604;2022-10-16T18:21:53;99913.56;;;15.44;100.00
16821;BME280;8527;49.740;6.604;2022-10-16T18:26:55;99915.97;;;15.32;100.00
16821;BME280;8527;49.740;6.604;2022-10-16T18:31:54;99920.94;;;15.36;100.00
16821;BME280;8527;49.740;6.604;2022-10-16T18:36:52;99915.72;;;15.27;100.00
16821;BME280;8527;49.740;6.604;2022-10-16T18:41:55;99922.47;;;15.23;100.00
16821;BME280;8527;49.740;6.604;2022-10-16T18:46:56;99917.09;;;15.16;100.00
16821;BME280;8527;49.740;6.604;2022-10-16T18:51:56;99926.09;;;15.09;100.00
16821;BME280;8527;49.740;6.604;2022-10-16T18:57:05;99933.88;;;15.10;100.00
16821;BME280;8527;49.740;6.604;2022-10-16T19:02:03;99928.31;;;15.05;100.00
16821;BME280;8527;49.740;6.604;2022-10-16T19:07:02;99924.75;;;14.98;100.00
16821;BME280;8527;49.740;6.604;2022-10-16T19:12:03;99917.75;;;14.97;100.00
16821;BME280;8527;49.740;6.604;2022-10-16T19:17:03;99919.56;;;14.89;100.00
16821;BME280;8527;49.740;6.604;2022-10-16T19:22:01;99923.56;;;14.79;100.00
16821;BME280;8527;49.740;6.604;2022-10-16T19:27:14;99921.81;;;14.71;100.00
16821;BME280;8527;49.740;6.604;2022-10-16T19:32:12;99920.75;;;14.65;100.00
16821;BME280;8527;49.740;6.604;2022-10-16T19:37:10;99928.91;;;14.57;100.00
16821;BME280;8527;49.740;6.604;2022-10-16T19:42:09;99926.44;;;14.40;100.00
16821;BME280;8527;49.740;6.604;2022-10-16T19:47:10;99935.72;;;14.23;100.00
16821;BME280;8527;49.740;6.604;2022-10-16T19:52:08;99935.72;;;14.23;100.00
16821;BME280;8527;49.740;6.604;2022-10-16T19:57:07;99934.03;;;14.37;100.00
16821;BME280;8527;49.740;6.604;2022-10-16T20:02:11;99935.22;;;14.34;100.00
16821;BME280;8527;49.740;6.604;2022-10-16T20:07:10;99933.81;;;14.38;100.00
16821;BME280;8527;49.740;6.604;2022-10-16T20:12:08;99954.16;;;14.39;100.00
16821;BME280;8527;49.740;6.604;2022-10-16T20:17:07;99950.53;;;14.25;100.00
16821;BME280;8527;49.740;6.604;2022-10-16T20:22:08;99948.44;;;14.20;100.00
16821;BME280;8527;49.740;6.604;2022-10-16T20:27:06;99959.97;;;14.06;100.00
16821;BME280;8527;49.740;6.604;2022-10-16T20:32:05;99955.09;;;13.95;100.00
16821;BME280;8527;49.740;6.604;2022-10-16T20:37:09;99949.22;;;13.99;100.00
16821;BME280;8527;49.740;6.604;2022-10-16T20:42:07;99953.91;;;13.97;100.00
16821;BME280;8527;49.740;6.604;2022-10-16T20:47:05;99948.03;;;13.87;100.00
16821;BME280;8527;49.740;6.604;2022-10-16T20:52:04;99951.16;;;13.90;100.00
16821;BME280;8527;49.740;6.604;2022-10-16T20:57:05;99954.47;;;13.77;100.00
16821;BME280;8527;49.740;6.604;2022-10-16T21:02:03;99965.75;;;13.79;100.00
16821;BME280;8527;49.740;6.604;2022-10-16T21:07:09;99968.44;;;13.79;100.00
16821;BME280;8527;49.740;6.604;2022-10-16T21:12:13;99970.47;;;13.77;100.00
16821;BME280;8527;49.740;6.604;2022-10-16T21:17:12;99977.25;;;13.65;100.00
16821;BME280;8527;49.740;6.604;2022-10-16T21:22:10;99982.59;;;13.65;100.00
16821;BME280;8527;49.740;6.604;2022-10-16T21:27:08;99991.78;;;13.62;100.00
16821;BME280;8527;49.740;6.604;2022-10-16T21:32:09;99998.50;;;13.58;100.00
16821;BME280;8527;49.740;6.604;2022-10-16T21:37:08;99994.53;;;13.54;100.00
16821;BME280;8527;49.740;6.604;2022-10-16T21:42:07;99997.53;;;13.51;100.00
16821;BME280;8527;49.740;6.604;2022-10-16T21:47:15;99987.72;;;13.52;100.00
16821;BME280;8527;49.740;6.604;2022-10-16T21:52:14;99990.75;;;13.48;100.00
16821;BME280;8527;49.740;6.604;2022-10-16T21:57:15;99983.78;;;13.47;100.00
16821;BME280;8527;49.740;6.604;2022-10-16T22:02:16;99981.38;;;13.53;100.00
16821;BME280;8527;49.740;6.604;2022-10-16T22:07:14;99981.63;;;13.43;100.00
16821;BME280;8527;49.740;6.604;2022-10-16T22:12:24;99985.97;;;13.44;100.00
16821;BME280;8527;49.740;6.604;2022-10-16T22:17:29;99990.75;;;13.48;100.00
16821;BME280;8527;49.740;6.604;2022-10-16T22:22:27;99991.94;;;13.46;100.00
16821;BME280;8527;49.740;6.604;2022-10-16T22:27:26;99997.28;;;13.46;100.00
16821;BME280;8527;49.740;6.604;2022-10-16T22:32:28;99994.09;;;13.42;100.00
16821;BME280;8527;49.740;6.604;2022-10-16T22:37:27;99995.75;;;13.28;100.00
16821;BME280;8527;49.740;6.604;2022-10-16T22:42:26;100012.19;;;13.32;100.00
16821;BME280;8527;49.740;6.604;2022-10-16T22:47:24;100019.56;;;13.06;100.00
16821;BME280;8527;49.740;6.604;2022-10-16T22:52:26;100026.50;;;13.16;100.00
16821;BME280;8527;49.740;6.604;2022-10-16T22:57:27;100023.81;;;13.16;100.00
16821;BME280;8527;49.740;6.604;2022-10-16T23:02:26;100032.56;;;13.25;100.00
16821;BME280;8527;49.740;6.604;2022-10-16T23:07:34;100043.50;;;13.30;100.00
16821;BME280;8527;49.740;6.604;2022-10-16T23:12:36;100032.50;;;13.33;100.00
16821;BME280;8527;49.740;6.604;2022-10-16T23:17:34;100029.19;;;13.31;100.00
16821;BME280;8527;49.740;6.604;2022-10-16T23:22:35;100033.09;;;13.20;100.00
16821;BME280;8527;49.740;6.604;2022-10-16T23:27:34;100043.41;;;13.23;100.00
16821;BME280;8527;49.740;6.604;2022-10-16T23:32:34;100040.75;;;13.23;100.00
16821;BME280;8527;49.740;6.604;2022-10-16T23:37:35;100047.91;;;13.22;100.00
16821;BME280;8527;49.740;6.604;2022-10-16T23:42:33;100050.22;;;13.26;100.00
16821;BME280;8527;49.740;6.604;2022-10-16T23:47:32;100060.00;;;13.10;100.00
16821;BME280;8527;49.740;6.604;2022-10-16T23:52:30;100064.47;;;13.09;100.00
16821;BME280;8527;49.740;6.604;2022-10-16T23:57:32;100064.47;;;13.09;100.00
